Time;durP1;ratioP1;P1;durP2;ratioP2;P2;SDS_P1;SDS_P2;PMS_P1;PMS_P2;Temp;Humidity;BMP_temperature;BMP_pressure;BME280_temperature;BME280_humidity;BME280_pressure;Samples;Min_cycle;Max_cycle;Signal;HPM_P1;HPM_P2
2021/10/04 16:47:53;;;;;;;3.47;1.27;;;;;;;14.63;72.17;100025.47;1090628;46;20042;-83
2021/10/04 17:33:46;;;;;;;3.53;1.40;;;;;;;14.13;74.78;99985.22;1088180;54;20031;-80
2021/10/04 17:35:01;;;;;;;3.92;1.63;;;;;;;14.16;74.66;99990.25;1088329;54;20022;-80
2021/10/04 17:36:05;;;;;;;3.53;1.63;;;;;;;14.25;74.69;99991.06;1088431;54;20022;-82
2021/10/04 17:37:11;;;;;;;4.57;1.92;;;;;;;14.27;74.51;99988.19;1088383;54;20022;-82
2021/10/04 17:38:12;;;;;;;3.15;1.27;;;;;;;14.32;74.37;99996.63;1095816;46;20045;-83
2021/10/04 17:39:19;;;;;;;3.63;1.50;;;;;;;14.34;74.44;99999.97;1095811;46;20707;-81
2021/10/04 17:40:22;;;;;;;4.25;1.50;;;;;;;14.35;74.39;99998.97;1089343;46;20057;-82
2021/10/04 17:41:33;;;;;;;4.38;1.67;;;;;;;14.27;74.73;100002.50;1088506;54;20019;-82
2021/10/04 17:42:35;;;;;;;4.25;1.80;;;;;;;14.29;74.82;99996.94;1088471;46;20018;-82
2021/10/04 17:43:44;;;;;;;4.38;1.77;;;;;;;14.28;74.81;99997.94;1088345;54;20120;-83
2021/10/04 17:44:45;;;;;;;3.78;1.63;;;;;;;14.23;75.03;99993.09;1088960;46;20018;-81
2021/10/04 17:49:13;;;;;;;3.15;1.60;;;;;;;14.23;75.06;99993.09;1087616;54;20026;-81
2021/10/04 17:50:18;;;;;;;3.90;1.73;;;;;;;14.18;75.42;99985.53;1088492;54;20022;-81
2021/10/04 17:51:20;;;;;;;3.65;1.55;;;;;;;14.19;75.39;99994.44;1088407;54;20062;-81
2021/10/04 17:52:31;;;;;;;4.80;2.50;;;;;;;14.16;75.51;100001.00;1088288;54;20030;-80
2021/10/04 17:53:35;;;;;;;4.55;2.00;;;;;;;14.23;75.28;100003.00;1088384;54;20044;-80
2021/10/04 17:54:40;;;;;;;4.07;2.05;;;;;;;14.27;75.43;99999.81;1088398;54;20038;-82
2021/10/04 17:55:41;;;;;;;4.65;2.15;;;;;;;14.30;74.95;100002.16;1088295;54;20094;-80
2021/10/04 17:56:57;;;;;;;3.90;1.85;;;;;;;14.32;74.81;100002.81;1088431;54;20037;-82
2021/10/04 17:57:59;;;;;;;3.67;1.70;;;;;;;14.37;74.95;100014.94;1088484;54;20046;-82
2021/10/04 17:59:03;;;;;;;3.80;1.80;;;;;;;14.39;74.91;100008.34;1089758;46;20026;-82
2021/10/04 18:00:07;;;;;;;3.88;1.80;;;;;;;14.44;74.98;100006.00;1088216;54;20026;-81
2021/10/04 18:01:39;;;;;;;4.22;1.77;;;;;;;14.41;74.65;100000.97;1091237;46;20041;-81
2021/10/04 18:02:54;;;;;;;3.97;1.67;;;;;;;14.39;74.94;99986.84;1088414;54;20035;-81
2021/10/04 18:04:13;;;;;;;3.10;1.27;;;;;;;14.40;74.98;99991.22;1088425;54;20038;-80
2021/10/04 18:05:17;;;;;;;4.03;1.67;;;;;;;14.40;74.79;99988.53;1088171;54;20038;-82
2021/10/04 18:06:28;;;;;;;3.38;1.70;;;;;;;14.41;74.70;99984.84;1088182;54;20015;-81
2021/10/04 18:07:32;;;;;;;3.58;1.75;;;;;;;14.44;74.93;99989.88;1088160;54;20801;-81
2021/10/04 18:08:38;;;;;;;4.50;2.00;;;;;;;14.40;74.75;99988.53;1088090;54;20115;-81
2021/10/04 18:09:42;;;;;;;3.97;2.25;;;;;;;14.42;75.04;99991.03;1088251;54;20051;-82
2021/10/04 18:10:53;;;;;;;4.25;1.92;;;;;;;14.45;74.90;99990.69;1090740;39;20629;-83
2021/10/04 18:11:55;;;;;;;3.55;1.50;;;;;;;14.46;75.01;99982.44;1088400;54;20034;-82
2021/10/04 18:13:00;;;;;;;5.07;1.83;;;;;;;14.44;75.08;99987.19;1090619;39;21278;-81
2021/10/04 18:14:04;;;;;;;3.20;1.70;;;;;;;14.39;75.18;99984.16;1088298;54;20026;-82
2021/10/04 18:15:15;;;;;;;3.78;1.58;;;;;;;14.33;75.01;99974.91;1088393;54;20046;-81
2021/10/04 18:16:17;;;;;;;4.50;1.60;;;;;;;14.37;75.23;99979.97;1088325;54;20051;-82
2021/10/04 18:17:21;;;;;;;3.20;1.60;;;;;;;14.43;75.26;99971.19;1088387;54;20034;-82
2021/10/04 18:18:24;;;;;;;3.33;1.30;;;;;;;14.42;74.97;99975.75;1088402;54;20058;-83
2021/10/04 18:19:31;;;;;;;2.75;1.23;;;;;;;14.41;74.89;99973.22;1088486;54;20086;-82
2021/10/04 18:20:33;;;;;;;3.83;1.48;;;;;;;14.48;74.79;99982.31;1088421;54;20031;-82
2021/10/04 18:21:38;;;;;;;2.85;1.30;;;;;;;14.48;74.84;99982.31;1088425;54;20030;-81
2021/10/04 18:22:40;;;;;;;3.95;1.70;;;;;;;14.40;74.73;99980.47;1088472;54;20018;-81
2021/10/04 18:23:54;;;;;;;3.83;1.63;;;;;;;14.39;74.68;99991.41;1090379;46;20025;-81
2021/10/04 18:24:59;;;;;;;3.67;1.50;;;;;;;14.44;74.67;99989.88;1088520;54;20027;-83
2021/10/04 18:26:01;;;;;;;4.10;2.10;;;;;;;14.42;74.79;99986.50;1088323;54;20757;-81
2021/10/04 18:27:06;;;;;;;3.35;1.45;;;;;;;14.44;74.77;99989.03;1088389;54;20027;-82
2021/10/04 18:28:12;;;;;;;3.72;1.60;;;;;;;14.46;74.97;99987.84;1088447;54;20078;-82
2021/10/04 18:29:14;;;;;;;4.45;2.00;;;;;;;14.43;74.89;99981.97;1088376;54;20018;-83
2021/10/04 18:30:20;;;;;;;3.90;2.00;;;;;;;14.39;75.08;99970.72;1088528;54;20018;-82
2021/10/04 18:31:28;;;;;;;3.80;1.77;;;;;;;14.39;75.05;99961.81;1088517;54;20054;-81
2021/10/04 18:32:36;;;;;;;3.55;1.80;;;;;;;14.42;75.00;99956.06;1088388;54;20034;-83
2021/10/04 18:33:40;;;;;;;4.10;2.28;;;;;;;14.48;74.92;99953.53;1088323;54;20026;-81
2021/10/04 18:34:47;;;;;;;4.07;1.73;;;;;;;14.38;74.78;99942.13;1088379;54;20026;-82
2021/10/04 18:35:52;;;;;;;5.63;2.30;;;;;;;14.36;75.09;99944.16;1088287;54;20039;-82
2021/10/04 18:36:57;;;;;;;3.50;1.73;;;;;;;14.34;75.11;99951.56;1088407;54;20027;-82
2021/10/04 18:38:00;;;;;;;6.38;2.15;;;;;;;14.38;75.23;99952.06;1088369;54;20034;-82
2021/10/04 18:39:13;;;;;;;4.28;2.00;;;;;;;14.29;75.66;99957.47;1096561;39;20697;-81
2021/10/04 18:40:17;;;;;;;4.20;1.90;;;;;;;14.34;75.62;99963.16;1088371;54;20058;-83
2021/10/04 18:41:22;;;;;;;3.42;1.73;;;;;;;14.40;75.37;99953.56;1088407;54;20034;-80
2021/10/04 18:42:29;;;;;;;4.13;1.70;;;;;;;14.44;75.01;99946.84;1088382;54;20043;-82
2021/10/04 18:43:33;;;;;;;3.20;1.60;;;;;;;14.47;75.08;99956.41;1088427;54;20035;-81
2021/10/04 18:44:44;;;;;;;3.67;1.73;;;;;;;14.47;75.02;99949.16;1088399;54;20019;-82
2021/10/04 18:45:49;;;;;;;3.85;1.65;;;;;;;14.47;75.35;99951.88;1088297;54;20058;-82
2021/10/04 18:46:50;;;;;;;2.97;1.30;;;;;;;14.48;75.25;99960.78;1088375;54;20034;-81
2021/10/04 18:47:56;;;;;;;3.30;1.40;;;;;;;14.49;74.99;99957.91;1088323;54;20034;-82
2021/10/04 18:49:01;;;;;;;3.30;1.35;;;;;;;14.48;75.33;99969.69;1088117;54;20053;-80
2021/10/04 18:53:00;;;;;;;4.88;1.52;;;;;;;14.33;75.58;99971.41;1087782;54;20037;-81
2021/10/04 18:54:07;;;;;;;3.90;1.60;;;;;;;14.37;75.30;99967.34;1088453;54;20018;-83
2021/10/04 18:55:09;;;;;;;3.90;1.67;;;;;;;14.36;75.25;99954.91;1088406;54;20018;-81
2021/10/04 18:56:14;;;;;;;4.80;2.08;;;;;;;14.37;75.30;99956.59;1088361;54;20018;-82
2021/10/04 18:57:21;;;;;;;3.85;1.90;;;;;;;14.41;74.88;99947.19;1088253;54;20015;-84
2021/10/04 18:58:35;;;;;;;4.28;1.98;;;;;;;14.38;74.76;99952.91;1088360;54;20039;-82
2021/10/04 18:59:40;;;;;;;3.85;1.80;;;;;;;14.40;74.96;99953.56;1088413;54;20025;-81
2021/10/04 19:00:43;;;;;;;3.50;1.83;;;;;;;14.42;74.93;99939.94;1088391;54;20082;-82
2021/10/04 19:01:48;;;;;;;4.03;1.80;;;;;;;14.35;74.99;99947.88;1088478;54;20026;-82
2021/10/04 19:02:50;;;;;;;4.18;2.10;;;;;;;14.32;74.81;99948.22;1088342;54;20030;-81
2021/10/04 19:03:54;;;;;;;3.22;1.58;;;;;;;14.32;74.97;99945.53;1088358;54;20010;-82
2021/10/04 19:04:56;;;;;;;3.45;1.70;;;;;;;14.31;75.18;99954.59;1088436;54;20049;-81
2021/10/04 19:06:01;;;;;;;3.78;1.77;;;;;;;14.32;74.79;99958.97;1088243;54;20019;-81
2021/10/04 19:07:15;;;;;;;4.38;1.73;;;;;;;14.30;74.59;99963.69;1088433;54;20034;-82
2021/10/04 19:08:20;;;;;;;3.83;1.58;;;;;;;14.33;74.89;99960.66;1093442;39;20706;-80
2021/10/04 19:09:27;;;;;;;3.13;1.40;;;;;;;14.37;74.42;99963.84;1088382;54;20066;-81
2021/10/04 19:10:32;;;;;;;3.42;1.48;;;;;;;14.39;74.75;99959.94;1088330;54;20766;-81
2021/10/04 19:11:37;;;;;;;3.80;1.60;;;;;;;14.41;74.37;99960.63;1088420;54;20046;-84
2021/10/04 19:12:51;;;;;;;3.10;1.50;;;;;;;14.41;74.07;99957.94;1091322;39;20713;-82
2021/10/04 19:13:55;;;;;;;2.90;1.25;;;;;;;14.45;74.17;99967.31;1088308;54;20038;-81
2021/10/04 19:15:11;;;;;;;3.08;1.50;;;;;;;14.37;73.72;99966.53;1088280;54;20030;-83
2021/10/04 19:16:14;;;;;;;3.65;1.60;;;;;;;14.38;74.19;99963.66;1088269;54;20074;-82
2021/10/04 19:17:21;;;;;;;3.35;1.40;;;;;;;14.41;74.24;99968.69;1088430;54;20046;-81
2021/10/04 19:33:11;;;;;;;5.05;1.90;;;;;;;14.15;74.25;99942.88;1087913;54;20813;-82
2021/10/04 19:34:19;;;;;;;7.15;4.22;;;;;;;14.22;74.34;99944.88;1090539;39;20665;-82
2021/10/04 19:35:39;;;;;;;5.68;3.30;;;;;;;14.25;74.29;99950.75;1087747;54;20073;-82
2021/10/04 19:52:03;;;;;;;3.40;1.55;;;;;;;14.29;75.06;99900.16;1087944;54;20034;-82
2021/10/04 19:53:17;;;;;;;3.13;1.48;;;;;;;14.27;74.83;99912.91;1088667;39;20722;-80
2021/10/04 19:54:21;;;;;;;4.13;2.10;;;;;;;14.27;75.26;99904.84;1087838;54;20844;-81
2021/10/04 19:55:28;;;;;;;3.90;2.05;;;;;;;14.32;75.14;99905.19;1087839;54;20026;-83
2021/10/04 19:56:30;;;;;;;4.95;2.40;;;;;;;14.27;75.36;99896.78;1087806;54;20019;-81
2021/10/04 19:57:43;;;;;;;4.28;2.35;;;;;;;14.28;75.33;99888.56;1087958;54;20025;-80
2021/10/04 19:58:48;;;;;;;5.00;2.35;;;;;;;14.28;75.44;99888.56;1087913;54;20019;-81
2021/10/04 19:59:53;;;;;;;4.65;2.55;;;;;;;14.25;75.30;99885.41;1088022;54;20018;-81
2021/10/04 20:00:58;;;;;;;4.00;2.40;;;;;;;14.28;75.41;99877.81;1087862;54;20026;-81
2021/10/04 20:02:01;;;;;;;5.00;2.30;;;;;;;14.29;75.41;99878.63;1087978;54;20039;-81
2021/10/04 20:03:05;;;;;;;4.53;2.28;;;;;;;14.32;75.40;99876.44;1088146;54;20722;-81
2021/10/04 20:04:09;;;;;;;4.47;2.35;;;;;;;14.35;75.48;99875.28;1088139;54;20019;-83
2021/10/04 20:05:14;;;;;;;3.63;1.90;;;;;;;14.35;75.24;99880.66;1088210;54;20050;-83
2021/10/04 20:06:24;;;;;;;3.70;2.20;;;;;;;14.32;75.41;99878.31;1088283;54;20030;-82
2021/10/04 20:07:26;;;;;;;4.53;2.60;;;;;;;14.26;75.86;99879.84;1088523;54;20037;-82
2021/10/04 20:08:37;;;;;;;4.07;2.30;;;;;;;14.26;75.94;99879.00;1088525;54;20033;-81
2021/10/04 20:11:30;;;;;;;3.97;2.05;;;;;;;14.22;76.09;99883.03;1088462;54;20879;-82
2021/10/04 20:12:56;;;;;;;;;;;;;;;;;;;;;
2021/10/04 20:14:02;;;;;;;4.18;2.17;;;;;;;14.26;75.87;99884.38;1088356;54;20034;-81
2021/10/04 20:15:11;;;;;;;3.97;2.20;;;;;;;14.32;75.78;99878.31;1088461;54;20019;-81
2021/10/04 20:16:13;;;;;;;3.63;2.05;;;;;;;14.36;75.82;99882.31;1088506;54;20701;-82
2021/10/04 20:17:18;;;;;;;3.85;1.88;;;;;;;14.42;75.57;99880.78;1088579;54;20762;-83
2021/10/04 20:18:20;;;;;;;4.38;2.25;;;;;;;14.41;75.84;99882.63;1088412;54;20023;-83
2021/10/04 20:19:24;;;;;;;4.30;2.00;;;;;;;14.45;75.48;99883.94;1088609;54;20045;-82
2021/10/04 20:20:29;;;;;;;3.72;2.10;;;;;;;14.50;75.41;99886.13;1088469;54;20059;-82
2021/10/04 20:21:35;;;;;;;4.20;2.30;;;;;;;14.51;75.58;99879.72;1088663;54;20019;-82
2021/10/04 20:22:45;;;;;;;3.97;2.17;;;;;;;14.41;75.81;99877.25;1088548;54;20034;-83
2021/10/04 20:23:51;;;;;;;4.90;2.38;;;;;;;14.39;75.63;99878.47;1088572;54;20029;-83
2021/10/04 20:25:00;;;;;;;3.75;2.22;;;;;;;14.39;76.14;99876.59;1088598;54;20057;-80
2021/10/04 20:26:03;;;;;;;4.25;2.20;;;;;;;14.35;75.85;99875.28;1088457;54;20054;-82
2021/10/04 20:27:08;;;;;;;5.25;2.40;;;;;;;14.40;75.96;99874.75;1095180;39;20638;-82
2021/10/04 20:28:13;;;;;;;3.88;2.00;;;;;;;14.41;76.00;99876.41;1088532;54;20037;-82
2021/10/04 20:29:15;;;;;;;3.75;1.80;;;;;;;14.46;75.74;99868.66;1088485;54;20038;-81
2021/10/04 20:30:19;;;;;;;3.08;1.70;;;;;;;14.49;76.01;99873.72;1088529;54;20054;-81
2021/10/04 20:31:22;;;;;;;3.28;1.65;;;;;;;14.49;75.84;99879.09;1088646;54;20086;-81
2021/10/04 20:32:27;;;;;;;3.78;2.17;;;;;;;14.47;75.95;99876.56;1088515;54;20022;-82
2021/10/04 20:33:29;;;;;;;5.90;2.08;;;;;;;14.53;75.97;99879.56;1088611;54;20027;-82
2021/10/04 20:34:48;;;;;;;4.53;1.95;;;;;;;14.48;75.89;99878.22;1088513;54;20027;-82
2021/10/04 20:35:50;;;;;;;7.60;2.72;;;;;;;14.45;76.21;99872.38;1088427;54;20027;-82
2021/10/04 20:36:56;;;;;;;4.47;2.58;;;;;;;14.41;76.27;99869.19;1088587;54;20027;-82
2021/10/04 20:38:00;;;;;;;4.72;2.20;;;;;;;14.42;76.07;99872.72;1088631;54;20030;-82
2021/10/04 20:39:09;;;;;;;4.15;2.08;;;;;;;14.45;76.07;99883.94;1091025;39;20705;-83
2021/10/04 20:40:14;;;;;;;3.92;2.13;;;;;;;14.48;76.07;99882.78;1088556;54;20030;-82
2021/10/04 20:41:19;;;;;;;4.57;2.00;;;;;;;14.51;75.77;99887.81;1088565;54;20026;-81
2021/10/04 20:42:25;;;;;;;4.80;1.95;;;;;;;14.53;75.68;99880.41;1088517;54;20026;-80
2021/10/04 20:43:27;;;;;;;4.82;2.28;;;;;;;14.53;76.00;99887.66;1088592;54;20026;-81
2021/10/04 20:44:41;;;;;;;4.20;2.25;;;;;;;14.46;75.85;99874.88;1088592;54;20029;-81
2021/10/04 20:45:42;;;;;;;4.38;2.45;;;;;;;14.48;76.29;99878.22;1088554;54;20031;-81
2021/10/04 20:46:48;;;;;;;3.65;2.13;;;;;;;14.49;76.27;99874.53;1088517;54;20033;-81
2021/10/04 20:47:52;;;;;;;3.35;2.03;;;;;;;14.50;76.33;99878.06;1088485;54;20037;-82
2021/10/04 20:48:54;;;;;;;4.13;2.25;;;;;;;14.47;76.19;99876.56;1088564;54;20046;-82
2021/10/04 20:49:58;;;;;;;5.20;2.35;;;;;;;14.46;76.21;99864.13;1088550;54;20018;-82
2021/10/04 20:51:03;;;;;;;3.58;2.10;;;;;;;14.47;76.19;99864.97;1088517;54;20840;-82
2021/10/04 20:52:08;;;;;;;4.55;2.40;;;;;;;14.47;76.10;99865.78;1088650;54;20030;-83
2021/10/04 20:53:13;;;;;;;3.78;2.03;;;;;;;14.48;76.50;99861.28;1088355;54;20102;-81
2021/10/04 20:54:23;;;;;;;4.05;1.95;;;;;;;14.49;76.18;99857.56;1088558;54;20027;-82
2021/10/04 20:55:28;;;;;;;4.07;2.17;;;;;;;14.49;76.32;99863.78;1088602;54;20030;-82
2021/10/04 20:56:40;;;;;;;3.58;2.17;;;;;;;14.49;76.27;99871.84;1088445;54;20030;-84
2021/10/04 20:57:44;;;;;;;4.43;2.20;;;;;;;14.50;76.45;99878.06;1088473;54;20757;-81
2021/10/04 20:58:48;;;;;;;3.90;2.33;;;;;;;14.50;76.13;99889.66;1088495;54;20029;-81
2021/10/04 20:59:52;;;;;;;4.00;2.25;;;;;;;14.52;76.08;99884.09;1088470;54;20037;-82
2021/10/04 21:01:00;;;;;;;4.55;2.08;;;;;;;14.53;76.13;99888.47;1093066;46;20802;-83
2021/10/04 21:02:06;;;;;;;3.38;1.63;;;;;;;14.55;76.14;99893.69;1088522;54;20082;-82
2021/10/04 21:03:12;;;;;;;3.40;1.98;;;;;;;14.56;76.38;99889.97;1088406;54;20031;-81
2021/10/04 21:04:17;;;;;;;4.70;2.67;;;;;;;14.53;76.28;99890.34;1088564;54;20018;-82
2021/10/04 21:05:19;;;;;;;4.00;2.13;;;;;;;14.53;76.44;99893.03;1088505;54;20041;-82
2021/10/04 21:06:25;;;;;;;4.03;2.22;;;;;;;14.53;76.16;99901.09;1088521;54;20022;-81
2021/10/04 21:07:27;;;;;;;3.90;2.20;;;;;;;14.53;76.21;99893.03;1088505;54;20033;-82
2021/10/04 21:08:32;;;;;;;5.63;2.03;;;;;;;14.51;76.24;99888.66;1088562;54;20018;-82
2021/10/04 21:09:39;;;;;;;4.90;2.63;;;;;;;14.50;76.38;99888.81;1088581;54;20094;-82
2021/10/04 21:10:41;;;;;;;4.80;2.40;;;;;;;14.49;76.28;99890.69;1090081;39;20675;-82
2021/10/04 21:12:08;;;;;;;3.95;2.30;;;;;;;14.45;76.55;99883.94;1088725;54;20018;-82
2021/10/04 21:13:09;;;;;;;4.43;2.60;;;;;;;14.43;76.72;99886.00;1088667;54;20018;-82
2021/10/04 21:18:25;;;;;;;5.90;2.88;;;;;;;14.30;77.38;99867.72;1090369;46;19995;-82
2021/10/04 21:19:30;;;;;;;5.55;2.58;;;;;;;14.26;77.29;99863.69;1088226;54;20026;-80
2021/10/04 21:20:31;;;;;;;5.78;2.72;;;;;;;14.26;77.21;99852.13;1089174;46;20034;-81
2021/10/04 21:21:36;;;;;;;4.47;2.75;;;;;;;14.29;77.45;99849.06;1088004;54;20031;-79
2021/10/04 21:22:40;;;;;;;6.18;3.60;;;;;;;14.29;77.19;99835.63;1087713;54;20034;-79
2021/10/04 21:23:42;;;;;;;5.10;2.88;;;;;;;14.27;77.53;99832.25;1087957;54;20033;-78
2021/10/04 21:24:49;;;;;;;5.38;2.80;;;;;;;14.31;77.24;99833.59;1088011;54;20042;-80
2021/10/04 21:25:53;;;;;;;6.10;2.90;;;;;;;14.28;77.57;99825.88;1087783;54;22789;-79
2021/10/04 21:26:57;;;;;;;4.57;2.75;;;;;;;14.32;77.57;99824.53;1087879;54;20034;-80
2021/10/04 21:27:59;;;;;;;3.92;2.20;;;;;;;14.37;77.30;99829.38;1087780;54;20034;-78
2021/10/04 21:29:04;;;;;;;4.00;2.42;;;;;;;14.37;77.21;99832.91;1087909;54;20031;-79
2021/10/04 21:30:06;;;;;;;3.90;2.10;;;;;;;14.39;77.19;99833.56;1087913;54;20058;-79
2021/10/04 21:31:11;;;;;;;4.07;2.20;;;;;;;14.43;77.21;99834.03;1087964;54;20030;-80
2021/10/04 21:32:13;;;;;;;4.82;2.63;;;;;;;14.45;77.00;99829.34;1087909;54;20057;-78
2021/10/04 21:33:17;;;;;;;4.38;2.63;;;;;;;14.46;77.02;99837.22;1087853;54;20031;-79
2021/10/04 21:34:19;;;;;;;3.83;2.20;;;;;;;14.49;76.87;99831.50;1087826;54;20034;-79
2021/10/04 21:35:23;;;;;;;4.18;2.28;;;;;;;14.49;77.04;99836.06;1087878;54;20034;-79
2021/10/04 21:36:27;;;;;;;4.35;2.00;;;;;;;14.45;77.15;99834.72;1087727;54;20035;-78
2021/10/04 21:37:32;;;;;;;4.10;2.30;;;;;;;14.44;77.11;99844.66;1087886;54;20030;-79
2021/10/04 21:38:33;;;;;;;4.35;2.67;;;;;;;14.35;77.32;99843.84;1087800;54;20029;-80
2021/10/04 21:39:40;;;;;;;4.43;2.60;;;;;;;14.38;77.10;99839.94;1087780;54;20047;-79
2021/10/04 21:40:44;;;;;;;4.55;2.80;;;;;;;14.37;77.26;99832.06;1089887;39;20769;-79
2021/10/04 21:41:49;;;;;;;4.00;2.30;;;;;;;14.38;77.16;99839.94;1087854;54;20026;-78
2021/10/04 21:42:51;;;;;;;5.30;2.60;;;;;;;14.39;77.16;99830.06;1087884;54;20793;-79
2021/10/04 21:43:55;;;;;;;4.15;2.70;;;;;;;14.38;77.32;99834.56;1087902;54;20034;-80
2021/10/04 21:44:57;;;;;;;4.82;2.75;;;;;;;14.38;77.30;99844.50;1087802;54;20042;-79
2021/10/04 21:46:01;;;;;;;6.30;2.88;;;;;;;14.38;77.29;99850.72;1087745;54;20062;-79
2021/10/04 21:47:03;;;;;;;4.50;2.85;;;;;;;14.36;77.14;99852.72;1087780;54;20034;-78
2021/10/04 21:48:08;;;;;;;5.68;2.65;;;;;;;14.38;77.19;99850.72;1087905;54;20041;-79
2021/10/04 21:49:14;;;;;;;4.82;2.72;;;;;;;14.40;76.82;99846.00;1087912;54;20026;-80
2021/10/04 21:50:16;;;;;;;4.40;2.58;;;;;;;14.42;77.09;99852.06;1087996;54;20030;-80
2021/10/04 21:51:20;;;;;;;4.65;2.60;;;;;;;14.44;76.95;99850.03;1087671;54;21042;-79
2021/10/04 21:52:31;;;;;;;4.38;2.42;;;;;;;14.45;76.60;99856.22;1088046;54;20057;-78
2021/10/04 21:53:35;;;;;;;3.92;2.40;;;;;;;14.47;76.66;99855.03;1089034;39;20697;-80
2021/10/04 21:54:37;;;;;;;4.90;2.33;;;;;;;14.48;76.88;99845.97;1088295;54;20707;-80
2021/10/04 21:55:41;;;;;;;4.18;2.50;;;;;;;14.46;76.47;99847.16;1088433;54;20115;-80
2021/10/04 21:56:45;;;;;;;4.55;3.00;;;;;;;14.44;77.04;99843.78;1088486;47;20379;-80
2021/10/04 21:57:57;;;;;;;5.45;2.78;;;;;;;14.42;77.05;99843.97;1088431;54;20784;-80
2021/10/04 21:59:02;;;;;;;4.30;2.60;;;;;;;14.46;76.70;99836.41;1088518;47;20022;-79
2021/10/04 22:00:28;;;;;;;4.78;2.70;;;;;;;14.49;76.58;99836.06;1088459;54;20090;-78
2021/10/04 22:01:41;;;;;;;5.82;2.47;;;;;;;14.45;76.72;99827.47;1088440;54;20030;-80
2021/10/04 22:02:48;;;;;;;5.10;3.33;;;;;;;14.42;76.75;99818.94;1088329;54;20034;-80
2021/10/04 22:04:03;;;;;;;4.43;2.33;;;;;;;14.45;76.64;99822.09;1094854;46;20087;-82
2021/10/04 22:05:29;;;;;;;4.38;2.78;;;;;;;14.45;76.80;99815.91;1088126;54;20034;-81
2021/10/04 22:10:56;;;;;;;4.10;2.70;;;;;;;14.41;76.71;99804.66;1088104;54;20069;-80
2021/10/04 22:12:04;;;;;;;4.00;2.40;;;;;;;14.38;76.67;99814.94;1087770;54;20030;-79
2021/10/04 22:13:09;;;;;;;5.00;3.10;;;;;;;14.38;76.89;99813.06;1087897;54;20022;-80
2021/10/04 22:14:13;;;;;;;3.90;2.47;;;;;;;14.40;76.74;99810.22;1087760;54;20037;-82
2021/10/04 22:15:18;;;;;;;4.35;2.65;;;;;;;14.42;76.99;99792.88;1087854;54;20741;-79
2021/10/04 22:16:22;;;;;;;4.80;2.28;;;;;;;14.45;76.52;99792.50;1087809;54;20804;-81
2021/10/04 22:17:25;;;;;;;4.20;2.60;;;;;;;14.44;76.78;99788.19;1096004;39;20638;-81
2021/10/04 22:18:29;;;;;;;4.78;2.10;;;;;;;14.45;76.59;99781.75;1087972;54;20030;-82
2021/10/04 22:19:34;;;;;;;3.97;2.35;;;;;;;14.45;76.48;99781.75;1087935;54;20027;-80
2021/10/04 22:20:36;;;;;;;4.18;2.78;;;;;;;14.41;76.74;99779.59;1087460;54;20742;-81
2021/10/04 22:21:40;;;;;;;5.85;3.00;;;;;;;14.39;76.76;99773.59;1087464;54;20030;-80
2021/10/04 22:22:42;;;;;;;5.10;2.67;;;;;;;14.34;77.04;99777.63;1087676;54;20034;-80
2021/10/04 22:23:47;;;;;;;4.18;2.70;;;;;;;14.33;77.05;99767.06;1088209;39;20952;-81
2021/10/04 22:24:51;;;;;;;4.95;2.67;;;;;;;14.29;77.14;99779.16;1087489;54;20034;-80
2021/10/04 22:25:53;;;;;;;5.25;2.67;;;;;;;14.29;77.23;99782.69;1087434;54;20035;-80
2021/10/04 22:26:58;;;;;;;4.25;2.58;;;;;;;14.27;77.34;99786.56;1087729;54;20034;-81
2021/10/04 22:28:02;;;;;;;4.30;2.35;;;;;;;14.30;77.58;99791.59;1087754;54;20034;-81
2021/10/04 22:29:06;;;;;;;4.53;2.30;;;;;;;14.31;77.58;99785.22;1087746;54;20955;-80
2021/10/04 22:30:09;;;;;;;4.97;2.53;;;;;;;14.33;77.48;99783.19;1087689;54;20058;-80
2021/10/04 22:31:13;;;;;;;3.60;2.33;;;;;;;14.38;77.41;99786.16;1090672;39;20804;-80
2021/10/04 22:32:18;;;;;;;4.78;2.58;;;;;;;14.38;77.25;99779.97;1089206;46;20034;-80
2021/10/04 22:33:20;;;;;;;4.05;2.15;;;;;;;14.39;77.27;99770.91;1087564;54;20058;-80
2021/10/04 22:34:24;;;;;;;3.92;2.30;;;;;;;14.35;77.36;99771.25;1087530;54;20031;-80
2021/10/04 22:35:26;;;;;;;4.68;2.65;;;;;;;14.36;77.42;99764.00;1087409;54;20062;-80
2021/10/04 22:36:31;;;;;;;5.07;2.47;;;;;;;14.38;77.48;99766.53;1087523;54;20038;-81
2021/10/04 22:37:33;;;;;;;3.60;2.33;;;;;;;14.35;77.18;99776.63;1088422;39;20923;-81
2021/10/04 22:38:37;;;;;;;4.10;2.50;;;;;;;14.36;77.51;99766.69;1087676;54;20030;-81
2021/10/04 22:39:39;;;;;;;4.38;2.60;;;;;;;14.37;77.26;99770.22;1087667;54;20058;-81
2021/10/04 22:40:44;;;;;;;5.25;3.50;;;;;;;14.36;77.35;99782.81;1087384;54;20026;-81
2021/10/04 22:41:48;;;;;;;4.95;3.60;;;;;;;14.29;77.34;99787.22;1089820;39;20721;-81
2021/10/04 22:42:49;;;;;;;5.93;3.20;;;;;;;14.30;77.46;99788.91;1087709;54;20034;-81
2021/10/04 22:43:56;;;;;;;5.65;3.38;;;;;;;14.24;77.28;99781.56;1087720;54;20053;-81
2021/10/04 22:45:01;;;;;;;4.28;3.10;;;;;;;14.21;77.39;99785.44;1087813;54;20030;-80
2021/10/04 22:46:05;;;;;;;6.63;3.55;;;;;;;14.14;77.45;99779.06;1087704;54;20033;-81
2021/10/04 22:47:09;;;;;;;4.80;3.65;;;;;;;14.12;77.64;99790.00;1087804;54;20030;-81
2021/10/04 22:48:11;;;;;;;5.00;3.35;;;;;;;14.11;77.52;99784.81;1087694;54;20069;-81
2021/10/04 22:49:15;;;;;;;4.78;3.35;;;;;;;14.09;77.86;99782.28;1087735;54;20037;-81
2021/10/04 22:50:17;;;;;;;5.00;3.35;;;;;;;14.09;77.72;99782.28;1087755;54;20053;-80
2021/10/04 22:51:22;;;;;;;4.38;2.90;;;;;;;14.08;77.72;99785.97;1087987;54;20034;-80
2021/10/04 22:52:23;;;;;;;4.72;3.08;;;;;;;14.07;77.66;99781.63;1089977;39;20698;-80
2021/10/04 22:53:28;;;;;;;6.88;3.90;;;;;;;14.02;77.98;99776.78;1088416;39;20903;-79
2021/10/04 22:54:32;;;;;;;5.03;3.17;;;;;;;14.02;78.15;99775.91;1086968;54;20057;-80
2021/10/04 22:55:34;;;;;;;4.82;3.70;;;;;;;14.01;77.72;99777.78;1089903;39;20750;-80
2021/10/04 22:56:38;;;;;;;6.05;3.13;;;;;;;14.07;77.76;99768.19;1087688;54;20772;-80
2021/10/04 22:57:40;;;;;;;4.63;3.10;;;;;;;14.09;77.90;99763.47;1087729;54;20040;-79
2021/10/04 22:58:45;;;;;;;4.18;2.80;;;;;;;14.12;77.80;99752.38;1087795;54;20026;-81
2021/10/04 22:59:49;;;;;;;4.32;3.20;;;;;;;14.12;77.42;99754.22;1087786;54;20042;-80
2021/10/04 23:00:53;;;;;;;4.40;3.08;;;;;;;14.14;77.51;99752.19;1087665;54;20098;-81
2021/10/04 23:01:58;;;;;;;4.53;3.08;;;;;;;14.16;77.57;99750.16;1087750;54;20038;-78
2021/10/04 23:02:59;;;;;;;5.15;4.05;;;;;;;14.13;77.52;99747.81;1087738;54;20035;-79
2021/10/04 23:04:03;;;;;;;4.80;3.17;;;;;;;14.09;77.58;99741.13;1087704;54;20021;-80
2021/10/04 23:05:05;;;;;;;4.47;3.65;;;;;;;14.08;77.77;99752.88;1092128;39;21032;-80
2021/10/04 23:06:10;;;;;;;5.85;3.35;;;;;;;14.07;77.89;99740.47;1087696;54;20038;-81
2021/10/04 23:07:12;;;;;;;6.55;4.47;;;;;;;14.04;77.70;99747.03;1087586;54;20034;-80
2021/10/04 23:08:16;;;;;;;5.20;3.78;;;;;;;14.01;77.91;99752.75;1087638;54;20031;-80
2021/10/04 23:09:20;;;;;;;5.18;4.28;;;;;;;14.01;77.53;99753.59;1087752;54;20788;-80
2021/10/04 23:10:22;;;;;;;4.68;3.88;;;;;;;13.97;77.87;99741.50;1087894;54;20042;-80
2021/10/04 23:11:28;;;;;;;5.32;4.20;;;;;;;13.96;78.01;99739.84;1087722;54;20030;-80
2021/10/04 23:12:30;;;;;;;4.88;3.60;;;;;;;14.00;77.72;99745.69;1087652;54;20034;-79
2021/10/04 23:13:34;;;;;;;5.15;3.67;;;;;;;13.99;78.01;99744.88;1087623;54;20046;-80
2021/10/04 23:14:36;;;;;;;5.18;3.72;;;;;;;13.98;77.86;99734.31;1087757;54;20036;-80
2021/10/04 23:15:43;;;;;;;5.72;4.68;;;;;;;13.95;77.80;99746.22;1087765;54;20057;-80
2021/10/04 23:16:44;;;;;;;4.95;4.03;;;;;;;13.94;77.94;99743.72;1088283;54;20023;-82
2021/10/04 23:17:55;;;;;;;6.28;5.28;;;;;;;13.85;78.21;99743.75;1088221;54;20030;-82
2021/10/04 23:18:59;;;;;;;;;;;;;;;13.70;78.63;99740.09;1088350;54;20031;-82
2021/10/04 23:20:01;;;;;;;6.53;5.05;;;;;;;13.77;78.28;99735.72;1088256;54;19934;-82
2021/10/04 23:21:05;;;;;;;6.72;4.68;;;;;;;13.77;78.26;99734.88;1088347;54;20034;-81
2021/10/04 23:22:14;;;;;;;7.65;5.22;;;;;;;13.72;78.70;99732.69;1088195;54;20042;-83
2021/10/04 23:23:25;;;;;;;5.95;4.88;;;;;;;13.75;78.67;99743.09;1088654;39;20824;-82
2021/10/04 23:24:27;;;;;;;5.97;4.25;;;;;;;13.78;78.48;99742.78;1088381;54;20019;-82
2021/10/04 23:25:31;;;;;;;6.05;4.03;;;;;;;13.86;78.35;99734.69;1088333;54;20050;-81
2021/10/04 23:26:33;;;;;;;4.85;3.67;;;;;;;13.92;78.16;99737.66;1088271;54;20010;-82
2021/10/04 23:27:48;;;;;;;5.65;3.50;;;;;;;13.95;78.20;99737.31;1088372;54;20019;-81